createdAt,value
2022-11-21T00:01:27.108Z,99318.63
2022-11-21T00:03:54.560Z,99328.19
2022-11-21T00:06:23.725Z,99308.84
2022-11-21T00:08:51.204Z,99322.03
2022-11-21T00:11:18.540Z,99318.56
2022-11-21T00:13:45.768Z,99328.28
2022-11-21T00:16:16.252Z,99327.38
2022-11-21T00:18:44.432Z,99330.91
2022-11-21T00:21:18.107Z,99316.78
2022-11-21T00:23:47.094Z,99329.94
2022-11-21T00:26:16.654Z,99329.13
2022-11-21T00:28:44.023Z,99323.78
2022-11-21T00:31:23.634Z,99315.00
2022-11-21T00:33:51.031Z,99314.97
2022-11-21T00:36:18.275Z,99329.88
2022-11-21T00:38:45.529Z,99330.66
2022-11-21T00:41:12.688Z,99316.56
2022-11-21T00:43:39.799Z,99334.16
2022-11-21T00:46:07.002Z,99323.56
2022-11-21T00:48:34.371Z,99315.63
2022-11-21T00:51:02.041Z,99325.41
2022-11-21T00:53:30.425Z,99303.44
2022-11-21T00:55:58.265Z,99329.97
2022-11-21T00:58:26.122Z,99333.66
2022-11-21T01:00:53.619Z,99333.81
2022-11-21T01:03:20.878Z,99327.75
2022-11-21T01:05:48.324Z,99320.84
2022-11-21T01:08:15.612Z,99313.84
2022-11-21T01:10:42.893Z,99296.31
2022-11-21T01:13:10.233Z,99298.97
2022-11-21T01:15:37.290Z,99275.31
2022-11-21T01:18:04.612Z,99263.91
2022-11-21T01:20:31.754Z,99258.69
2022-11-21T01:22:58.959Z,99255.16
2022-11-21T01:25:26.312Z,99246.34
2022-11-21T01:27:53.530Z,99249.84
2022-11-21T01:30:20.828Z,99238.44
2022-11-21T01:32:50.744Z,99223.53
2022-11-21T01:35:19.064Z,99227.91
2022-11-21T01:37:49.976Z,99234.88
2022-11-21T01:40:17.570Z,99237.41
2022-11-21T01:43:06.812Z,99232.94
2022-11-21T01:46:19.404Z,99222.28
2022-11-21T01:48:58.589Z,99245.09
2022-11-21T01:51:38.535Z,99254.78
2022-11-21T01:54:24.943Z,99245.19
2022-11-21T01:57:05.694Z,99238.16
2022-11-21T01:59:48.491Z,99247.78
2022-11-21T02:02:21.045Z,99245.19
2022-11-21T02:04:50.535Z,99252.19
2022-11-21T02:07:20.675Z,99263.59
2022-11-21T02:09:53.119Z,99260.16
2022-11-21T02:12:48.258Z,99243.44
2022-11-21T02:15:16.071Z,99240.69
2022-11-21T02:17:43.079Z,99235.44
2022-11-21T02:20:14.721Z,99245.94
2022-11-21T02:23:14.400Z,99243.31
2022-11-21T02:25:43.257Z,99255.53
2022-11-21T02:28:17.360Z,99253.75
2022-11-21T02:30:44.597Z,99271.28
2022-11-21T02:33:12.791Z,99270.41
2022-11-21T02:35:40.725Z,99282.75
2022-11-21T02:38:33.225Z,99281.94
2022-11-21T02:41:14.457Z,99284.56
2022-11-21T02:43:54.113Z,99292.47
2022-11-21T02:46:21.325Z,99294.22
2022-11-21T02:48:48.393Z,99291.59
2022-11-21T02:51:15.374Z,99291.63
2022-11-21T02:53:42.382Z,99296.91
2022-11-21T02:56:09.413Z,99290.84
2022-11-21T02:58:36.775Z,99283.78
2022-11-21T03:01:03.827Z,99290.78
2022-11-21T03:03:31.013Z,99288.28
2022-11-21T03:05:58.075Z,99285.69
2022-11-21T03:08:25.155Z,99283.00
2022-11-21T03:10:52.228Z,99276.88
2022-11-21T03:13:19.239Z,99280.38
2022-11-21T03:15:46.314Z,99288.28
2022-11-21T03:18:13.319Z,99283.94
2022-11-21T03:20:40.402Z,99276.09
2022-11-21T03:23:07.448Z,99278.72
2022-11-21T03:25:34.525Z,99272.56
2022-11-21T03:28:01.526Z,99276.91
2022-11-21T03:30:28.566Z,99272.53
2022-11-21T03:32:56.937Z,99280.47
2022-11-21T03:35:24.873Z,99272.56
2022-11-21T03:37:51.978Z,99272.56
2022-11-21T03:40:19.086Z,99264.69
2022-11-21T03:42:46.104Z,99253.25
2022-11-21T03:45:13.105Z,99267.25
2022-11-21T03:47:40.096Z,99266.41
2022-11-21T03:50:07.896Z,99262.94
2022-11-21T03:52:34.998Z,99256.75
2022-11-21T03:55:02.050Z,99256.66
2022-11-21T03:57:29.117Z,99256.69
2022-11-21T03:59:56.135Z,99259.28
2022-11-21T04:02:23.097Z,99275.00
2022-11-21T04:04:50.090Z,99278.66
2022-11-21T04:07:17.124Z,99282.22
2022-11-21T04:09:44.229Z,99274.41
2022-11-21T04:12:11.219Z,99262.13
2022-11-21T04:14:38.420Z,99251.56
2022-11-21T04:17:05.453Z,99245.41
2022-11-21T04:19:32.516Z,99241.00
2022-11-21T04:21:59.465Z,99247.09
2022-11-21T04:24:26.854Z,99251.47
2022-11-21T04:26:56.996Z,99250.63
2022-11-21T04:29:24.010Z,99251.50
2022-11-21T04:31:50.966Z,99248.03
2022-11-21T04:34:18.014Z,99244.53
2022-11-21T04:36:45.715Z,99243.63
2022-11-21T04:39:12.745Z,99248.88
2022-11-21T04:41:39.680Z,99254.22
2022-11-21T04:44:06.700Z,99240.22
2022-11-21T04:46:33.703Z,99237.56
2022-11-21T04:49:00.798Z,99231.44
2022-11-21T04:51:28.541Z,99227.97
2022-11-21T04:53:55.520Z,99235.06
2022-11-21T04:56:22.517Z,99232.44
2022-11-21T04:58:53.567Z,99218.38
2022-11-21T05:01:20.803Z,99227.19
2022-11-21T05:03:47.831Z,99205.25
2022-11-21T05:06:14.830Z,99208.78
2022-11-21T05:08:41.805Z,99207.00
2022-11-21T05:11:27.394Z,99211.38
2022-11-21T05:13:55.091Z,99201.69
2022-11-21T05:16:22.055Z,99209.56
2022-11-21T05:18:49.129Z,99212.19
2022-11-21T05:21:16.674Z,99215.69
2022-11-21T05:23:43.595Z,99218.28
2022-11-21T05:26:10.615Z,99217.47
2022-11-21T05:28:37.928Z,99211.31
2022-11-21T05:31:04.988Z,99211.28
2022-11-21T05:33:31.959Z,99199.88
2022-11-21T05:35:59.208Z,99200.75
2022-11-21T05:38:26.245Z,99216.47
2022-11-21T05:40:53.497Z,99213.03
2022-11-21T05:43:38.917Z,99214.81
2022-11-21T05:46:06.077Z,99206.88
2022-11-21T05:48:34.362Z,99199.84
2022-11-21T05:51:01.369Z,99210.31
2022-11-21T05:53:28.407Z,99223.50
2022-11-21T05:55:55.406Z,99221.75
2022-11-21T05:58:23.080Z,99214.75
2022-11-21T06:00:50.013Z,99199.84
2022-11-21T06:03:34.617Z,99197.19
2022-11-21T06:06:13.610Z,99199.72
2022-11-21T06:08:46.880Z,99194.44
2022-11-21T06:11:16.349Z,99202.31
2022-11-21T06:13:44.178Z,99208.38
2022-11-21T06:16:15.110Z,99218.03
2022-11-21T06:18:45.224Z,99216.34
2022-11-21T06:21:27.114Z,99210.19
2022-11-21T06:23:57.054Z,99217.13
2022-11-21T06:26:26.846Z,99211.88
2022-11-21T06:28:55.583Z,99216.25
2022-11-21T06:31:27.580Z,99209.25
2022-11-21T06:33:59.485Z,99207.47
2022-11-21T06:36:27.069Z,99216.28
2022-11-21T06:38:55.836Z,99219.75
2022-11-21T06:41:26.033Z,99222.38
2022-11-21T06:43:53.552Z,99217.97
2022-11-21T06:46:20.641Z,99210.97
2022-11-21T06:48:47.800Z,99208.31
2022-11-21T06:51:20.619Z,99215.34
2022-11-21T06:53:56.009Z,99207.38
2022-11-21T06:56:27.593Z,99195.03
2022-11-21T06:58:55.944Z,99201.19
2022-11-21T07:01:24.089Z,99218.72
2022-11-21T07:03:51.243Z,99205.63
2022-11-21T07:06:18.314Z,99200.31
2022-11-21T07:08:45.339Z,99206.50
2022-11-21T07:11:29.831Z,99193.22
2022-11-21T07:13:56.927Z,99194.00
2022-11-21T07:16:26.546Z,99193.13
2022-11-21T07:18:53.748Z,99197.47
2022-11-21T07:21:20.961Z,99195.69
2022-11-21T07:23:48.777Z,99206.25
2022-11-21T07:26:15.880Z,99203.63
2022-11-21T07:28:43.338Z,99192.22
2022-11-21T07:31:13.795Z,99196.69
2022-11-21T07:33:43.530Z,99194.00
2022-11-21T07:36:12.327Z,99203.63
2022-11-21T07:38:41.017Z,99199.34
2022-11-21T07:41:08.076Z,99226.63
2022-11-21T07:43:35.214Z,99214.34
2022-11-21T07:46:02.232Z,99209.00
2022-11-21T07:48:29.529Z,99200.19
2022-11-21T07:50:56.679Z,99194.91
2022-11-21T07:53:24.295Z,99187.88
2022-11-21T07:55:51.338Z,99193.28
2022-11-21T07:58:18.407Z,99177.41
2022-11-21T08:00:45.714Z,99177.44
2022-11-21T08:03:14.023Z,99166.13
2022-11-21T08:05:43.286Z,99158.16
2022-11-21T08:08:12.955Z,99171.28
2022-11-21T08:10:47.169Z,99174.03
2022-11-21T08:13:15.179Z,99182.91
2022-11-21T08:15:42.349Z,99175.03
2022-11-21T08:18:10.173Z,99164.56
2022-11-21T08:20:37.733Z,99172.44
2022-11-21T08:23:06.712Z,99175.13
2022-11-21T08:25:37.371Z,99164.63
2022-11-21T08:28:05.525Z,99159.41
2022-11-21T08:30:33.824Z,99154.16
2022-11-21T08:33:02.234Z,99155.91
2022-11-21T08:35:29.890Z,99145.34
2022-11-21T08:38:01.844Z,99148.03
2022-11-21T08:40:31.546Z,99136.66
2022-11-21T08:42:59.987Z,99137.56
2022-11-21T08:45:27.097Z,99145.44
2022-11-21T08:47:54.985Z,99158.69
2022-11-21T08:50:23.911Z,99159.63
2022-11-21T08:52:51.200Z,99147.38
2022-11-21T08:55:18.458Z,99151.78
2022-11-21T08:57:45.383Z,99149.19
2022-11-21T09:00:13.634Z,99142.19
2022-11-21T09:02:40.687Z,99138.72
2022-11-21T09:05:08.992Z,99143.97
2022-11-21T09:07:37.097Z,99148.34
2022-11-21T09:10:04.996Z,99172.03
2022-11-21T09:12:32.030Z,99143.13
2022-11-21T09:15:17.203Z,99146.63
2022-11-21T09:18:02.860Z,99141.38
2022-11-21T09:20:34.896Z,99147.50
2022-11-21T09:23:10.159Z,99137.00
2022-11-21T09:25:37.264Z,99145.78
2022-11-21T09:28:07.221Z,99135.25
2022-11-21T09:30:35.092Z,99120.34
2022-11-21T09:33:08.117Z,99113.34
2022-11-21T09:35:35.145Z,99101.94
2022-11-21T09:38:02.835Z,99101.94
2022-11-21T09:40:31.488Z,99079.13
2022-11-21T09:42:58.416Z,99078.25
2022-11-21T09:45:36.677Z,99064.22
2022-11-21T09:48:24.496Z,99067.72
2022-11-21T09:50:59.674Z,99068.59
2022-11-21T09:53:39.423Z,99076.50
2022-11-21T09:56:16.182Z,99074.72
2022-11-21T09:59:11.664Z,99044.00
2022-11-21T10:01:39.161Z,99020.28
2022-11-21T10:04:06.154Z,99009.75
2022-11-21T10:06:47.185Z,99028.13
2022-11-21T10:09:55.857Z,99031.63
2022-11-21T10:12:52.824Z,99026.31
2022-11-21T10:15:47.149Z,99021.91
2022-11-21T10:19:04.747Z,99017.44
2022-11-21T10:21:57.344Z,99005.97
2022-11-21T10:25:14.259Z,98972.56
2022-11-21T10:28:23.272Z,98947.97
2022-11-21T10:30:52.224Z,98922.47
2022-11-21T10:33:32.510Z,98943.41
2022-11-21T10:36:13.223Z,98865.41
2022-11-21T10:38:43.484Z,98867.00
2022-11-21T10:41:37.843Z,98853.75
2022-11-21T10:44:46.622Z,98864.34
2022-11-21T10:47:31.037Z,98893.91
2022-11-21T10:50:09.801Z,98842.88
2022-11-21T10:53:01.495Z,98818.41
2022-11-21T10:55:28.540Z,98817.50
2022-11-21T10:57:55.883Z,98791.94
2022-11-21T11:00:27.671Z,98739.94
2022-11-21T11:02:57.624Z,98762.69
2022-11-21T11:05:29.882Z,98730.97
2022-11-21T11:08:08.100Z,98753.78
2022-11-21T11:10:41.423Z,98742.38
2022-11-21T11:13:46.831Z,98737.13
2022-11-21T11:16:21.683Z,98769.41
2022-11-21T11:19:08.694Z,98781.50
2022-11-21T11:21:41.544Z,98755.91
2022-11-21T11:24:13.908Z,98731.28
2022-11-21T11:26:51.470Z,98728.47
2022-11-21T11:29:28.028Z,98699.53
2022-11-21T11:31:57.780Z,98674.09
2022-11-21T11:34:39.187Z,98695.84
2022-11-21T11:37:41.484Z,98650.19
2022-11-21T11:40:22.771Z,98613.34
2022-11-21T11:43:44.867Z,98586.63
2022-11-21T11:46:52.236Z,98616.75
2022-11-21T11:49:53.230Z,98633.59
2022-11-21T11:52:24.708Z,98644.28
2022-11-21T11:55:05.651Z,98701.94
2022-11-21T11:57:37.306Z,98753.22
2022-11-21T12:00:30.927Z,98692.53
2022-11-21T12:03:28.859Z,98711.56
2022-11-21T12:06:12.042Z,98699.38
2022-11-21T12:09:03.211Z,98703.03
2022-11-21T12:12:07.819Z,98698.69
2022-11-21T12:15:12.352Z,98740.56
2022-11-21T12:17:48.619Z,98721.44
2022-11-21T12:20:21.634Z,98740.63
2022-11-21T12:22:52.328Z,98753.59
2022-11-21T12:25:25.624Z,98762.22
2022-11-21T12:27:56.185Z,98700.72
2022-11-21T12:31:15.475Z,98713.03
2022-11-21T12:34:10.710Z,98703.28
2022-11-21T12:37:06.972Z,98690.34
2022-11-21T12:39:50.530Z,98569.25
2022-11-21T12:43:01.237Z,98575.13
2022-11-21T12:45:34.731Z,98606.16
2022-11-21T12:48:52.951Z,98607.25
2022-11-21T12:52:08.270Z,98575.94
2022-11-21T12:54:47.108Z,98608.38
2022-11-21T12:57:21.677Z,98588.25
2022-11-21T13:00:29.382Z,98602.34
2022-11-21T13:03:41.865Z,98588.25
2022-11-21T13:06:23.684Z,98584.63
2022-11-21T13:08:53.422Z,98566.22
2022-11-21T13:11:57.250Z,98562.56
2022-11-21T13:15:07.310Z,98566.59
2022-11-21T13:18:14.426Z,98595.09
2022-11-21T13:20:51.574Z,98618.69
2022-11-21T13:23:42.740Z,98574.88
2022-11-21T13:26:30.543Z,98538.88
2022-11-21T13:29:16.133Z,98541.66
2022-11-21T13:31:43.678Z,98581.13
2022-11-21T13:34:35.179Z,98574.13
2022-11-21T13:37:03.800Z,98523.31
2022-11-21T13:39:34.270Z,98536.38
2022-11-21T13:42:28.060Z,98506.56
2022-11-21T13:44:55.528Z,98504.75
2022-11-21T13:47:25.613Z,98484.69
2022-11-21T13:50:07.636Z,98473.06
2022-11-21T13:52:50.168Z,98468.97
2022-11-21T13:55:28.335Z,98473.81
2022-11-21T13:58:15.728Z,98473.09
2022-11-21T14:01:22.989Z,98475.88
2022-11-21T14:04:39.656Z,98464.69
2022-11-21T14:07:26.713Z,98467.47
2022-11-21T14:09:56.555Z,98473.78
2022-11-21T14:12:41.033Z,98473.06
2022-11-21T14:15:28.844Z,98467.03
2022-11-21T14:17:59.354Z,98483.72
2022-11-21T14:20:44.051Z,98489.09
2022-11-21T14:23:22.967Z,98507.50
2022-11-21T14:26:01.429Z,98516.19
2022-11-21T14:28:36.114Z,98524.94
2022-11-21T14:31:09.424Z,98530.22
2022-11-21T14:33:49.181Z,98518.75
2022-11-21T14:36:20.876Z,98505.63
2022-11-21T14:39:36.926Z,98512.66
2022-11-21T14:42:03.884Z,98517.03
2022-11-21T14:44:31.365Z,98506.50
2022-11-21T14:47:25.828Z,98494.22
2022-11-21T14:50:01.071Z,98495.81
2022-11-21T14:52:33.598Z,98466.13
2022-11-21T14:57:52.170Z,98458.38
2022-11-21T15:03:24.264Z,98451.44
2022-11-21T15:06:06.475Z,98434.09
2022-11-21T15:12:16.555Z,98453.56
2022-11-21T15:14:50.820Z,98446.59
2022-11-21T15:17:22.276Z,98429.13
2022-11-21T15:20:21.683Z,98404.78
2022-11-21T15:22:50.564Z,98415.28
2022-11-21T15:25:47.193Z,98396.00
2022-11-21T15:28:21.718Z,98360.38
2022-11-21T15:30:55.295Z,98369.19
2022-11-21T15:33:22.464Z,98369.13
2022-11-21T15:36:12.449Z,98350.09
2022-11-21T15:38:51.469Z,98359.66
2022-11-21T15:41:18.438Z,98350.03
2022-11-21T15:43:48.697Z,98335.25
2022-11-21T15:46:31.540Z,98322.25
2022-11-21T15:49:31.033Z,98315.25
2022-11-21T15:54:48.894Z,98315.47
2022-11-21T15:57:12.767Z,98299.75
2022-11-21T15:59:58.020Z,98283.19
2022-11-21T16:02:25.039Z,98270.97
2022-11-21T16:04:53.505Z,98253.53
2022-11-21T16:07:20.588Z,98257.06
2022-11-21T16:09:48.023Z,98242.22
2022-11-21T16:12:15.034Z,98237.91
2022-11-21T16:14:42.051Z,98227.56
2022-11-21T16:17:09.194Z,98221.50
2022-11-21T16:19:36.175Z,98220.66
2022-11-21T16:22:03.133Z,98230.34
2022-11-21T16:24:30.195Z,98246.69
2022-11-21T16:26:57.723Z,98226.03
2022-11-21T16:29:24.814Z,98231.31
2022-11-21T16:31:52.420Z,98239.19
2022-11-21T16:34:20.142Z,98239.28
2022-11-21T16:36:47.169Z,98224.59
2022-11-21T16:39:18.184Z,98228.94
2022-11-21T16:41:46.794Z,98231.50
2022-11-21T16:44:16.328Z,98226.25
2022-11-21T16:46:47.324Z,98207.06
2022-11-21T16:49:14.369Z,98202.72
2022-11-21T16:51:41.603Z,98204.44
2022-11-21T16:54:09.537Z,98194.06
2022-11-21T16:56:36.879Z,98199.28
2022-11-21T16:59:04.031Z,98194.97
2022-11-21T17:01:31.231Z,98201.09
2022-11-21T17:03:58.493Z,98214.19
2022-11-21T17:06:29.695Z,98213.34
2022-11-21T17:08:59.591Z,98207.31
2022-11-21T17:11:30.676Z,98213.41
2022-11-21T17:14:05.257Z,98215.16
2022-11-21T17:16:34.511Z,98207.22
2022-11-21T17:19:03.104Z,98202.84
2022-11-21T17:21:31.516Z,98218.56
2022-11-21T17:23:59.246Z,98223.00
2022-11-21T17:26:29.466Z,98243.13
2022-11-21T17:29:03.524Z,98245.72
2022-11-21T17:31:30.946Z,98249.22
2022-11-21T17:34:00.821Z,98242.22
2022-11-21T17:36:30.153Z,98233.50
2022-11-21T17:38:57.622Z,98246.59
2022-11-21T17:41:26.782Z,98243.94
2022-11-21T17:43:58.239Z,98247.44
2022-11-21T17:46:26.285Z,98231.72
2022-11-21T17:48:58.114Z,98227.34
2022-11-21T17:51:35.428Z,98214.19
2022-11-21T17:54:02.984Z,98208.97
2022-11-21T17:56:33.644Z,98210.69
2022-11-21T17:59:01.775Z,98220.31
2022-11-21T18:01:29.694Z,98215.09
2022-11-21T18:04:00.128Z,98211.63
2022-11-21T18:06:31.242Z,98208.97
2022-11-21T18:08:58.757Z,98201.13
2022-11-21T18:11:34.588Z,98201.13
2022-11-21T18:14:06.738Z,98177.53
2022-11-21T18:16:34.576Z,98187.16
2022-11-21T18:19:01.859Z,98192.38
2022-11-21T18:21:31.513Z,98187.13
2022-11-21T18:24:00.368Z,98192.41
2022-11-21T18:26:31.434Z,98185.41
2022-11-21T18:29:28.688Z,98182.81
2022-11-21T18:31:49.327Z,98190.69
2022-11-21T18:34:16.632Z,98198.59
2022-11-21T18:36:43.720Z,98217.78
2022-11-21T18:39:14.797Z,98230.00
2022-11-21T18:41:43.503Z,98238.75
2022-11-21T18:44:12.627Z,98238.75
2022-11-21T18:46:42.219Z,98229.13
2022-11-21T18:49:09.757Z,98220.41
2022-11-21T18:51:37.251Z,98215.16
2022-11-21T18:54:08.240Z,98207.31
2022-11-21T18:56:37.703Z,98201.25
2022-11-21T18:59:06.773Z,98196.91
2022-11-21T19:01:36.331Z,98200.34
2022-11-21T19:04:04.082Z,98189.81
2022-11-21T19:06:31.389Z,98182.84
2022-11-21T19:08:59.272Z,98184.66
2022-11-21T19:11:29.821Z,98189.03
2022-11-21T19:13:58.169Z,98192.47
2022-11-21T19:16:27.508Z,98185.47
2022-11-21T19:19:26.349Z,98180.22
2022-11-21T19:21:42.959Z,98174.13
2022-11-21T19:24:14.810Z,98171.50
2022-11-21T19:26:42.630Z,98220.13
2022-11-21T19:29:10.662Z,98172.28
2022-11-21T19:31:43.065Z,98147.84
2022-11-21T19:34:13.874Z,98166.13
2022-11-21T19:36:41.252Z,98160.03
2022-11-21T19:39:09.151Z,98153.91
2022-11-21T19:41:36.537Z,98157.34
2022-11-21T19:44:03.695Z,98148.59
2022-11-21T19:46:35.202Z,98147.75
2022-11-21T19:49:02.717Z,98152.97
2022-11-21T19:51:36.556Z,98150.34
2022-11-21T19:54:05.759Z,98147.72
2022-11-21T19:56:33.513Z,98150.28
2022-11-21T19:59:00.544Z,98141.56
2022-11-21T20:01:30.716Z,98142.44
2022-11-21T20:04:00.774Z,98137.19
2022-11-21T20:06:34.339Z,98145.06
2022-11-21T20:09:14.814Z,98140.72
2022-11-21T20:11:44.539Z,98146.84
2022-11-21T20:14:19.521Z,98139.84
2022-11-21T20:16:49.855Z,98147.75
2022-11-21T20:19:19.417Z,98150.34
2022-11-21T20:21:47.291Z,98149.50
2022-11-21T20:24:14.922Z,98158.22
2022-11-21T20:26:43.457Z,98157.38
2022-11-21T20:29:13.487Z,98161.72
2022-11-21T20:31:42.001Z,98162.56
2022-11-21T20:34:27.501Z,98156.50
2022-11-21T20:36:54.800Z,98158.22
2022-11-21T20:39:22.089Z,98155.63
2022-11-21T20:41:49.186Z,98152.13
2022-11-21T20:45:30.157Z,98160.00
2022-11-21T20:47:07.626Z,98164.38
2022-11-21T20:49:34.879Z,98172.25
2022-11-21T20:54:49.142Z,98186.19
2022-11-21T20:57:16.204Z,98193.19
2022-11-21T20:59:43.681Z,98181.00
2022-11-21T21:02:14.471Z,98192.38
2022-11-21T21:04:42.737Z,98194.13
2022-11-21T21:07:10.645Z,98200.25
2022-11-21T21:09:38.227Z,98198.50
2022-11-21T21:12:06.184Z,98205.50
2022-11-21T21:14:33.779Z,98209.03
2022-11-21T21:17:00.950Z,98209.91
2022-11-21T21:19:28.727Z,98212.53
2022-11-21T21:21:57.652Z,98216.00
2022-11-21T21:24:25.102Z,98208.19
2022-11-21T21:26:52.348Z,98209.91
2022-11-21T21:29:21.117Z,98203.78
2022-11-21T21:31:52.829Z,98199.44
2022-11-21T21:34:22.598Z,98195.94
2022-11-21T21:36:51.453Z,98194.19
2022-11-21T21:39:18.886Z,98196.84
2022-11-21T21:41:47.289Z,98193.31
2022-11-21T21:44:15.620Z,98197.69
2022-11-21T21:46:43.100Z,98191.59
2022-11-21T21:49:10.531Z,98188.94
2022-11-21T21:51:38.254Z,98190.69
2022-11-21T21:54:06.669Z,98184.59
2022-11-21T21:56:34.427Z,98186.34
2022-11-21T21:59:01.828Z,98183.72
2022-11-21T22:01:32.168Z,98182.84
2022-11-21T22:04:02.384Z,98175.00
2022-11-21T22:06:32.388Z,98183.72
2022-11-21T22:09:00.115Z,98181.97
2022-11-21T22:11:33.411Z,98178.47
2022-11-21T22:14:10.907Z,98173.22
2022-11-21T22:16:38.275Z,98175.84
2022-11-21T22:19:05.775Z,98174.09
2022-11-21T22:21:36.173Z,98181.06
2022-11-21T22:24:25.341Z,98174.06
2022-11-21T22:26:53.064Z,98170.59
2022-11-21T22:29:20.127Z,98172.31
2022-11-21T22:31:47.420Z,98167.06
2022-11-21T22:34:14.784Z,98162.69
2022-11-21T22:36:43.076Z,98163.56
2022-11-21T22:39:10.231Z,98158.28
2022-11-21T22:41:37.409Z,98155.66
2022-11-21T22:44:04.929Z,98152.16
2022-11-21T22:46:32.894Z,98142.56
2022-11-21T22:49:00.690Z,98134.69
2022-11-21T22:51:29.985Z,98142.56
2022-11-21T22:53:57.846Z,98134.69
2022-11-21T22:56:27.253Z,98131.19
2022-11-21T22:58:55.084Z,98131.19
2022-11-21T23:01:26.663Z,98135.53
2022-11-21T23:03:55.867Z,98135.53
2022-11-21T23:06:26.625Z,98135.50
2022-11-21T23:08:56.661Z,98134.63
2022-11-21T23:11:28.090Z,98123.28
2022-11-21T23:13:56.783Z,98131.13
2022-11-21T23:16:25.232Z,98130.25
2022-11-21T23:18:54.355Z,98125.84
2022-11-21T23:21:22.024Z,98125.81
2022-11-21T23:23:49.204Z,98125.81
2022-11-21T23:26:16.436Z,98131.88
2022-11-21T23:28:43.575Z,98122.28
2022-11-21T23:31:11.419Z,98113.50
2022-11-21T23:33:38.765Z,98123.09
2022-11-21T23:36:06.388Z,98135.31
2022-11-21T23:38:33.528Z,98139.66
2022-11-21T23:41:00.767Z,98151.00
2022-11-21T23:43:28.087Z,98155.34
2022-11-21T23:45:55.697Z,98155.34
2022-11-21T23:48:24.416Z,98158.84
2022-11-21T23:50:52.088Z,98151.84
2022-11-21T23:53:22.995Z,98142.22
2022-11-21T23:55:50.319Z,98133.50
2022-11-21T23:58:17.943Z,98135.25
